Time;durP1;ratioP1;P1;durP2;ratioP2;P2;SDS_P1;SDS_P2;PMS_P1;PMS_P2;Temp;Humidity;BMP_temperature;BMP_pressure;BME280_temperature;BME280_humidity;BME280_pressure;Samples;Min_cycle;Max_cycle;Signal;HPM_P1;HPM_P2
2023/01/29 00:00:08;;;;;;;0.00;0.00;;;0.80;99.90;;;;;;4930649;28;20094;-80
2023/01/29 00:02:35;;;;;;;0.00;0.00;;;0.80;99.90;;;;;;4932680;29;20051;-80
2023/01/29 00:05:00;;;;;;;0.00;0.00;;;1.40;99.90;;;;;;4935023;29;20015;-79
2023/01/29 00:07:26;;;;;;;0.00;0.00;;;0.80;99.90;;;;;;4933633;29;20392;-78
2023/01/29 00:09:52;;;;;;;0.00;0.00;;;0.80;99.90;;;;;;4933193;29;20035;-78
2023/01/29 00:12:19;;;;;;;0.10;0.10;;;1.00;99.90;;;;;;4931695;29;20111;-78
2023/01/29 00:14:46;;;;;;;0.00;0.00;;;0.70;99.90;;;;;;4932958;29;20024;-78
2023/01/29 00:17:12;;;;;;;0.00;0.00;;;0.80;99.90;;;;;;4932830;29;20019;-78
2023/01/29 00:19:37;;;;;;;0.00;0.00;;;0.70;99.90;;;;;;4934653;29;20555;-80
2023/01/29 00:22:03;;;;;;;0.00;0.00;;;0.70;99.90;;;;;;4934476;29;20028;-80
2023/01/29 00:24:29;;;;;;;0.00;0.00;;;0.70;99.90;;;;;;4935911;29;20479;-79
2023/01/29 00:26:55;;;;;;;0.00;0.00;;;0.70;99.90;;;;;;4933097;29;21127;-79
2023/01/29 00:29:21;;;;;;;0.00;0.00;;;0.60;99.90;;;;;;4934149;29;20075;-79
2023/01/29 00:31:47;;;;;;;0.00;0.00;;;0.60;99.90;;;;;;4932500;29;20036;-78
2023/01/29 00:34:12;;;;;;;0.00;0.00;;;0.70;99.90;;;;;;4934078;29;20033;-79
2023/01/29 00:36:38;;;;;;;0.00;0.00;;;0.60;99.90;;;;;;4932279;29;20417;-79
2023/01/29 00:39:14;;;;;;;0.00;0.00;;;0.60;99.90;;;;;;4933175;29;20090;-80
2023/01/29 00:50:00;;;;;;;0.00;0.00;;;0.60;99.90;;;;;;4933458;29;20043;-78
2023/01/29 00:52:26;;;;;;;0.00;0.00;;;0.50;99.90;;;;;;4946081;28;20020;-78
2023/01/29 00:54:59;;;;;;;0.00;0.00;;;0.50;99.90;;;;;;4932585;29;20032;-79
2023/01/29 00:57:28;;;;;;;0.00;0.00;;;0.50;99.90;;;;;;4933200;29;20408;-78
2023/01/29 00:59:54;;;;;;;0.17;0.17;;;0.40;99.90;;;;;;4932185;29;20055;-78
2023/01/29 01:05:06;;;;;;;0.00;0.00;;;0.30;99.90;;;;;;4936140;29;20047;-79
2023/01/29 01:07:32;;;;;;;0.00;0.00;;;0.20;99.90;;;;;;4929120;29;20466;-79
2023/01/29 01:12:43;;;;;;;0.00;0.00;;;0.20;99.90;;;;;;4932734;29;20043;-79
2023/01/29 01:15:10;;;;;;;0.00;0.00;;;0.10;99.90;;;;;;4933047;29;20020;-80
2023/01/29 01:17:41;;;;;;;0.00;0.00;;;0.20;99.90;;;;;;4934307;29;20058;-78
2023/01/29 01:20:08;;;;;;;0.00;0.00;;;0.20;99.90;;;;;;4932981;29;20055;-80
2023/01/29 01:22:34;;;;;;;0.00;0.00;;;0.30;99.90;;;;;;4930802;29;20405;-80
2023/01/29 01:25:09;;;;;;;0.00;0.00;;;0.30;99.90;;;;;;4933559;29;20024;-78
2023/01/29 01:27:40;;;;;;;0.00;0.00;;;0.30;99.90;;;;;;4929849;29;20359;-78
2023/01/29 01:30:13;;;;;;;0.00;0.00;;;0.30;99.90;;;;;;4933269;29;20026;-78
2023/01/29 01:32:39;;;;;;;0.00;0.00;;;0.30;99.90;;;;;;4930923;29;20086;-78
2023/01/29 01:35:16;;;;;;;0.00;0.00;;;0.30;99.90;;;;;;4931784;29;20027;-78
2023/01/29 01:37:41;;;;;;;0.00;0.00;;;0.30;99.90;;;;;;4930818;29;20396;-78
2023/01/29 01:40:16;;;;;;;0.00;0.00;;;0.30;99.90;;;;;;4931814;29;20024;-79
2023/01/29 01:42:48;;;;;;;0.00;0.00;;;0.20;99.90;;;;;;4930403;29;20477;-79
2023/01/29 01:45:27;;;;;;;0.00;0.00;;;0.30;99.90;;;;;;4930814;29;20043;-79
2023/01/29 01:48:23;;;;;;;0.00;0.00;;;0.30;99.90;;;;;;4932852;29;20019;-78
2023/01/29 01:50:59;;;;;;;0.00;0.00;;;0.30;99.90;;;;;;4931509;29;20027;-79
2023/01/29 01:53:37;;;;;;;0.00;0.00;;;0.20;99.90;;;;;;4932029;29;20117;-79
2023/01/29 01:56:19;;;;;;;0.65;0.65;;;0.20;99.90;;;;;;4930408;29;20011;-79
2023/01/29 01:58:50;;;;;;;0.00;0.00;;;0.30;99.90;;;;;;4931935;29;20039;-80
2023/01/29 02:01:27;;;;;;;0.00;0.00;;;0.20;99.90;;;;;;4933460;29;20118;-80
2023/01/29 02:09:45;;;;;;;0.00;0.00;;;0.20;99.90;;;;;;4931346;29;20099;-80
2023/01/29 02:12:12;;;;;;;0.00;0.00;;;0.20;99.90;;;;;;4931609;29;20031;-78
2023/01/29 02:14:40;;;;;;;0.00;0.00;;;0.20;99.90;;;;;;4931902;29;20024;-80
2023/01/29 02:17:08;;;;;;;0.00;0.00;;;0.20;99.90;;;;;;4931788;29;20099;-78
2023/01/29 02:19:46;;;;;;;0.00;0.00;;;0.20;99.90;;;;;;4933071;29;20023;-78
2023/01/29 02:22:33;;;;;;;0.00;0.00;;;0.10;99.90;;;;;;4934391;29;20481;-78
2023/01/29 02:25:32;;;;;;;0.00;0.00;;;0.10;99.90;;;;;;4930354;29;20674;-79
2023/01/29 02:28:37;;;;;;;0.00;0.00;;;0.00;99.90;;;;;;4928166;29;20836;-78
2023/01/29 02:31:16;;;;;;;0.00;0.00;;;0.00;99.90;;;;;;4927931;29;20812;-79
2023/01/29 02:34:11;;;;;;;0.00;0.00;;;-0.10;99.90;;;;;;4931527;29;20043;-78
2023/01/29 02:36:53;;;;;;;0.00;0.00;;;0.00;99.90;;;;;;4930343;29;20015;-80
2023/01/29 02:39:55;;;;;;;0.00;0.00;;;0.00;99.90;;;;;;4932365;29;20047;-79
2023/01/29 02:42:30;;;;;;;0.00;0.00;;;-0.10;99.90;;;;;;4919592;29;20031;-80
2023/01/29 02:45:28;;;;;;;0.00;0.00;;;-0.10;99.90;;;;;;4932884;29;20358;-78
2023/01/29 02:47:57;;;;;;;;;;;-0.20;99.90;;;;;;4932183;29;20031;-80
2023/01/29 02:51:02;;;;;;;0.00;0.00;;;-0.30;99.90;;;;;;4931043;29;19962;-80
2023/01/29 02:53:34;;;;;;;0.00;0.00;;;-0.20;99.90;;;;;;4906332;29;20032;-81
2023/01/29 02:56:11;;;;;;;1.20;0.95;;;-0.30;99.90;;;;;;4893477;29;21287;-78
2023/01/29 02:58:48;;;;;;;0.00;0.00;;;-0.30;99.90;;;;;;4912989;29;20027;-79
2023/01/29 03:01:29;;;;;;;0.00;0.00;;;-0.20;99.90;;;;;;4930417;29;20032;-80
2023/01/29 03:04:02;;;;;;;0.00;0.00;;;-0.20;99.90;;;;;;4930239;29;20031;-77
2023/01/29 03:06:37;;;;;;;0.00;0.00;;;-0.10;99.90;;;;;;4932472;29;20027;-79
2023/01/29 03:09:40;;;;;;;0.00;0.00;;;-0.20;99.90;;;;;;4929277;29;20035;-78
2023/01/29 03:12:32;;;;;;;0.00;0.00;;;-0.10;99.90;;;;;;4928704;29;20110;-79
2023/01/29 03:15:11;;;;;;;0.00;0.00;;;-0.10;99.90;;;;;;4928114;29;20555;-79
2023/01/29 03:17:53;;;;;;;0.00;0.00;;;-0.10;99.90;;;;;;4932811;29;20078;-81
2023/01/29 03:20:31;;;;;;;0.20;0.20;;;-0.20;99.90;;;;;;4946243;28;20393;-80
2023/01/29 03:23:22;;;;;;;0.00;0.00;;;-0.20;99.90;;;;;;4931036;29;20027;-80
2023/01/29 03:34:33;;;;;;;0.00;0.00;;;-0.20;99.90;;;;;;4932367;29;20070;-79
2023/01/29 03:37:32;;;;;;;0.00;0.00;;;-0.10;99.90;;;;;;4930029;29;20020;-79
2023/01/29 03:39:57;;;;;;;0.00;0.00;;;-0.10;99.90;;;;;;4932142;29;20020;-79
2023/01/29 03:42:31;;;;;;;0.00;0.00;;;-0.30;99.90;;;;;;4928056;29;20027;-79
2023/01/29 03:45:07;;;;;;;0.00;0.00;;;-0.30;99.90;;;;;;4927673;29;20098;-78
2023/01/29 03:47:48;;;;;;;0.00;0.00;;;-0.30;99.90;;;;;;4930414;29;20396;-80
2023/01/29 03:50:19;;;;;;;0.00;0.00;;;-0.20;99.90;;;;;;4928583;29;20028;-79
2023/01/29 03:53:08;;;;;;;0.00;0.00;;;-0.40;99.90;;;;;;4929807;29;20082;-82
2023/01/29 03:56:00;;;;;;;0.00;0.00;;;-0.30;99.90;;;;;;4928530;29;20024;-79
2023/01/29 03:58:42;;;;;;;0.00;0.00;;;-0.30;99.90;;;;;;4931861;29;20570;-79
2023/01/29 04:01:17;;;;;;;0.00;0.00;;;-0.30;99.90;;;;;;4929553;29;20714;-78
2023/01/29 04:03:57;;;;;;;0.00;0.00;;;-0.30;99.90;;;;;;4929344;29;20044;-80
2023/01/29 04:06:30;;;;;;;0.00;0.00;;;-0.30;99.90;;;;;;4929664;29;20032;-78
2023/01/29 04:08:58;;;;;;;0.00;0.00;;;-0.40;99.90;;;;;;4928513;29;20027;-78
2023/01/29 04:11:26;;;;;;;0.00;0.00;;;-0.40;99.90;;;;;;4931287;29;20067;-78
2023/01/29 04:13:52;;;;;;;0.00;0.00;;;-0.50;99.90;;;;;;4931190;29;20091;-79
2023/01/29 04:16:34;;;;;;;0.00;0.00;;;-0.50;99.90;;;;;;4929543;29;20024;-78
2023/01/29 04:19:01;;;;;;;0.00;0.00;;;-0.60;99.90;;;;;;4929854;29;20115;-78
2023/01/29 04:21:30;;;;;;;0.00;0.00;;;-0.60;99.90;;;;;;4929862;29;20030;-79
2023/01/29 04:23:56;;;;;;;0.00;0.00;;;-0.80;99.90;;;;;;4929489;29;20032;-78
2023/01/29 04:26:40;;;;;;;0.00;0.00;;;-0.70;99.90;;;;;;4932218;29;20524;-78
2023/01/29 04:29:26;;;;;;;0.00;0.00;;;-0.80;99.90;;;;;;4930955;29;20689;-79
2023/01/29 04:32:10;;;;;;;0.00;0.00;;;-0.80;99.90;;;;;;4928331;29;20135;-79
2023/01/29 04:34:47;;;;;;;0.00;0.00;;;-0.80;99.90;;;;;;4931244;29;20027;-79
2023/01/29 04:37:31;;;;;;;0.00;0.00;;;-0.80;99.90;;;;;;4931119;29;20028;-80
2023/01/29 04:40:25;;;;;;;0.00;0.00;;;-0.70;99.90;;;;;;4931681;29;20027;-78
2023/01/29 04:43:23;;;;;;;0.20;0.20;;;-0.70;99.90;;;;;;4931959;29;20024;-80
2023/01/29 04:46:14;;;;;;;0.00;0.00;;;-0.80;99.90;;;;;;4928749;29;20024;-78
2023/01/29 04:48:42;;;;;;;0.57;0.57;;;-0.70;99.90;;;;;;4935524;29;20520;-79
2023/01/29 04:51:38;;;;;;;0.00;0.00;;;-0.60;99.90;;;;;;4932309;29;20024;-78
2023/01/29 04:54:06;;;;;;;0.00;0.00;;;-0.60;99.90;;;;;;4930689;29;20023;-80
2023/01/29 04:56:53;;;;;;;0.00;0.00;;;-0.60;99.90;;;;;;4935125;29;20027;-80
2023/01/29 04:59:27;;;;;;;0.00;0.00;;;-0.50;99.90;;;;;;4932629;29;20068;-80
2023/01/29 05:01:53;;;;;;;0.00;0.00;;;-0.50;99.90;;;;;;4930060;29;20263;-78
2023/01/29 05:04:20;;;;;;;0.00;0.00;;;-0.50;99.90;;;;;;4933483;29;20038;-79
2023/01/29 05:06:46;;;;;;;0.00;0.00;;;-0.60;99.90;;;;;;4933154;29;20086;-80
2023/01/29 05:09:14;;;;;;;0.00;0.00;;;-0.60;99.90;;;;;;4933413;29;20481;-80
2023/01/29 05:11:41;;;;;;;0.00;0.00;;;-0.70;99.90;;;;;;4931586;29;20027;-80
2023/01/29 05:14:10;;;;;;;0.00;0.00;;;-0.80;99.90;;;;;;4932925;29;20016;-79
2023/01/29 05:16:50;;;;;;;0.00;0.00;;;-0.80;99.90;;;;;;4933651;29;20098;-79
2023/01/29 05:19:16;;;;;;;0.00;0.00;;;-0.80;99.90;;;;;;4933853;29;20047;-80
2023/01/29 05:21:45;;;;;;;0.00;0.00;;;-0.80;99.90;;;;;;4932712;29;20042;-78
2023/01/29 05:24:18;;;;;;;0.00;0.00;;;-0.80;99.90;;;;;;4930224;29;20047;-79
2023/01/29 05:29:31;;;;;;;0.00;0.00;;;-0.90;99.90;;;;;;4931240;29;20123;-80
2023/01/29 05:31:57;;;;;;;0.00;0.00;;;-0.90;99.90;;;;;;4931212;29;20723;-79
2023/01/29 05:34:23;;;;;;;0.00;0.00;;;-1.00;99.90;;;;;;4933657;29;20023;-79
2023/01/29 05:36:49;;;;;;;0.10;0.10;;;-1.00;99.90;;;;;;4933987;29;20028;-78
2023/01/29 05:39:15;;;;;;;0.00;0.00;;;-0.50;99.90;;;;;;4915777;29;20625;-81
2023/01/29 05:41:41;;;;;;;;;;;-1.10;99.90;;;;;;4934239;29;20070;-80
2023/01/29 05:44:09;;;;;;;0.00;0.00;;;-1.10;99.90;;;;;;4932963;29;20348;-79
2023/01/29 05:46:36;;;;;;;0.00;0.00;;;-1.20;99.90;;;;;;4932197;29;20032;-80
2023/01/29 05:49:01;;;;;;;0.00;0.00;;;-1.00;99.90;;;;;;4932445;29;20477;-79
2023/01/29 05:51:27;;;;;;;0.00;0.00;;;-1.20;99.90;;;;;;4931248;29;20047;-78
2023/01/29 05:53:57;;;;;;;0.00;0.00;;;-1.20;99.90;;;;;;4932063;29;20082;-78
2023/01/29 05:56:24;;;;;;;0.00;0.00;;;-1.30;99.90;;;;;;4933578;29;20040;-79
2023/01/29 05:58:56;;;;;;;0.00;0.00;;;-1.20;99.90;;;;;;4931472;29;20478;-80
2023/01/29 06:01:29;;;;;;;0.00;0.00;;;-1.30;99.90;;;;;;4933105;29;20067;-79
2023/01/29 06:04:01;;;;;;;0.00;0.00;;;-1.30;99.90;;;;;;4933679;29;20035;-82
2023/01/29 06:06:27;;;;;;;0.00;0.00;;;-1.30;99.90;;;;;;4932349;29;20055;-78
2023/01/29 06:08:53;;;;;;;0.00;0.00;;;-1.20;99.90;;;;;;4932927;29;20073;-79
2023/01/29 06:11:19;;;;;;;0.00;0.00;;;-1.30;99.90;;;;;;4931772;29;20035;-80
2023/01/29 06:13:45;;;;;;;0.00;0.00;;;-1.30;99.90;;;;;;4932769;29;20738;-81
2023/01/29 06:16:13;;;;;;;0.27;0.27;;;-1.30;99.90;;;;;;4931790;29;20034;-80
2023/01/29 06:18:43;;;;;;;0.00;0.00;;;-1.30;99.90;;;;;;4935722;29;20043;-78
2023/01/29 06:21:12;;;;;;;0.00;0.00;;;-1.30;99.90;;;;;;4932984;29;20028;-78
2023/01/29 06:23:39;;;;;;;0.00;0.00;;;-0.90;99.90;;;;;;4932128;29;20102;-79
2023/01/29 06:26:07;;;;;;;0.00;0.00;;;-1.30;99.90;;;;;;4931879;29;20036;-80
2023/01/29 06:28:33;;;;;;;0.00;0.00;;;-1.20;99.90;;;;;;4932301;29;20481;-79
2023/01/29 06:31:01;;;;;;;0.00;0.00;;;-1.30;99.90;;;;;;4931315;29;20087;-79
2023/01/29 06:33:27;;;;;;;0.00;0.00;;;-1.40;99.90;;;;;;4930124;29;20078;-80
2023/01/29 06:36:01;;;;;;;0.00;0.00;;;-0.90;99.90;;;;;;4933235;29;20413;-79
2023/01/29 06:38:27;;;;;;;0.00;0.00;;;-1.30;99.90;;;;;;4931309;29;20083;-80
2023/01/29 06:40:53;;;;;;;0.00;0.00;;;-1.30;99.90;;;;;;4930440;29;20540;-80
2023/01/29 06:43:22;;;;;;;0.00;0.00;;;-1.00;99.90;;;;;;4932135;29;20107;-79
2023/01/29 06:45:52;;;;;;;0.00;0.00;;;-1.30;99.90;;;;;;4931726;29;20028;-79
2023/01/29 06:48:18;;;;;;;0.00;0.00;;;-1.30;99.90;;;;;;4933624;29;20079;-80
2023/01/29 06:50:44;;;;;;;0.00;0.00;;;-1.30;99.90;;;;;;4931391;29;20086;-80
2023/01/29 06:53:10;;;;;;;0.00;0.00;;;-1.10;99.90;;;;;;4931291;29;20470;-81
2023/01/29 06:55:43;;;;;;;0.00;0.00;;;-1.40;99.90;;;;;;4931486;29;20040;-80
2023/01/29 06:58:11;;;;;;;0.00;0.00;;;-1.50;99.90;;;;;;4931360;29;20465;-80
2023/01/29 07:00:37;;;;;;;0.00;0.00;;;-1.40;99.90;;;;;;4928984;29;20086;-80
2023/01/29 07:03:03;;;;;;;0.00;0.00;;;-1.50;99.90;;;;;;4930193;29;20421;-80
2023/01/29 07:05:30;;;;;;;0.00;0.00;;;-1.30;99.90;;;;;;4930317;29;20031;-80
2023/01/29 07:08:01;;;;;;;0.00;0.00;;;-1.20;99.90;;;;;;4930592;29;20436;-78
2023/01/29 07:10:27;;;;;;;0.00;0.00;;;-1.50;99.90;;;;;;4929480;29;20055;-78
2023/01/29 07:12:53;;;;;;;0.00;0.00;;;-1.60;99.90;;;;;;4930095;29;20059;-80
2023/01/29 07:15:20;;;;;;;0.00;0.00;;;-1.50;99.90;;;;;;4931664;29;20738;-80
2023/01/29 07:18:10;;;;;;;0.00;0.00;;;-1.40;99.90;;;;;;4931826;29;20070;-81
2023/01/29 07:20:41;;;;;;;0.00;0.00;;;-1.40;99.90;;;;;;4929212;29;20377;-79
2023/01/29 07:23:11;;;;;;;0.00;0.00;;;-1.30;99.90;;;;;;4930406;29;20083;-79
2023/01/29 07:25:37;;;;;;;0.00;0.00;;;-1.30;99.90;;;;;;4931275;29;20051;-78
2023/01/29 07:28:03;;;;;;;0.00;0.00;;;-1.20;99.90;;;;;;4931195;29;20062;-80
2023/01/29 07:30:30;;;;;;;0.00;0.00;;;-1.10;99.90;;;;;;4931682;29;20043;-79
2023/01/29 07:33:01;;;;;;;0.05;0.05;;;-0.90;99.90;;;;;;4930475;29;20023;-80
2023/01/29 07:35:27;;;;;;;0.00;0.00;;;-0.70;99.90;;;;;;4931615;29;20024;-79
2023/01/29 07:37:53;;;;;;;0.00;0.00;;;-0.60;99.90;;;;;;4932806;29;20083;-79
2023/01/29 07:40:18;;;;;;;0.00;0.00;;;-0.50;99.90;;;;;;4932106;29;20052;-78
2023/01/29 07:42:45;;;;;;;0.00;0.00;;;-0.40;99.90;;;;;;4930846;29;20054;-82
2023/01/29 07:45:11;;;;;;;0.00;0.00;;;-0.50;99.90;;;;;;4931307;29;20058;-80
2023/01/29 07:47:37;;;;;;;0.00;0.00;;;-0.30;99.90;;;;;;4931472;29;20426;-80
2023/01/29 07:50:04;;;;;;;0.00;0.00;;;-0.40;99.90;;;;;;4934030;28;20020;-78
2023/01/29 07:52:32;;;;;;;0.00;0.00;;;-0.40;99.90;;;;;;4945902;28;20024;-80
2023/01/29 07:54:59;;;;;;;0.00;0.00;;;-0.40;99.90;;;;;;4929633;29;20024;-78
2023/01/29 07:57:26;;;;;;;0.00;0.00;;;-0.30;99.90;;;;;;4931311;29;20027;-78
2023/01/29 07:59:52;;;;;;;0.00;0.00;;;-0.50;99.90;;;;;;4931164;29;20043;-79
2023/01/29 08:02:20;;;;;;;0.00;0.00;;;-0.50;99.90;;;;;;4932091;29;20431;-80
2023/01/29 08:04:48;;;;;;;0.00;0.00;;;-0.30;99.90;;;;;;4932679;29;20027;-80
2023/01/29 08:07:15;;;;;;;0.00;0.00;;;-0.10;99.90;;;;;;4930239;29;20031;-80
2023/01/29 08:09:40;;;;;;;0.00;0.00;;;0.00;99.90;;;;;;4930879;29;20028;-78
2023/01/29 08:12:06;;;;;;;0.00;0.00;;;-0.10;99.90;;;;;;4929109;29;20024;-77
2023/01/29 08:14:32;;;;;;;0.00;0.00;;;-0.10;99.90;;;;;;4931398;29;20048;-77
2023/01/29 08:16:58;;;;;;;0.00;0.00;;;0.00;99.90;;;;;;4933453;29;20019;-78
2023/01/29 08:19:23;;;;;;;0.00;0.00;;;0.10;99.90;;;;;;4933645;29;20038;-79
2023/01/29 08:21:49;;;;;;;0.00;0.00;;;0.00;99.90;;;;;;4933640;29;20063;-78
2023/01/29 08:24:18;;;;;;;0.00;0.00;;;0.10;99.90;;;;;;4933687;29;20477;-77
2023/01/29 08:26:43;;;;;;;0.00;0.00;;;0.20;99.90;;;;;;4936644;29;20035;-79
2023/01/29 08:29:10;;;;;;;0.00;0.00;;;0.10;99.90;;;;;;4937084;29;20020;-79
2023/01/29 08:31:36;;;;;;;;;;;0.30;99.90;;;;;;4937754;29;20016;-78
2023/01/29 08:34:02;;;;;;;0.00;0.00;;;0.00;99.90;;;;;;4938063;29;19934;-78
2023/01/29 08:36:31;;;;;;;0.00;0.00;;;0.70;99.90;;;;;;4932629;29;20020;-77
2023/01/29 08:39:00;;;;;;;0.03;0.03;;;0.10;99.90;;;;;;4934104;29;20028;-76
2023/01/29 08:41:26;;;;;;;0.00;0.00;;;-0.20;99.90;;;;;;4933202;29;20023;-76
2023/01/29 08:43:52;;;;;;;0.00;0.00;;;0.00;99.90;;;;;;4934299;29;20176;-78
2023/01/29 08:46:25;;;;;;;0.00;0.00;;;0.40;99.90;;;;;;4933315;29;20051;-76
2023/01/29 08:48:59;;;;;;;0.00;0.00;;;-0.20;99.90;;;;;;4932108;29;20023;-76
2023/01/29 08:51:25;;;;;;;0.00;0.00;;;-0.10;99.90;;;;;;4930971;29;20023;-76
2023/01/29 08:53:51;;;;;;;0.00;0.00;;;-0.10;99.90;;;;;;4933272;29;20077;-76
2023/01/29 08:56:18;;;;;;;0.00;0.00;;;0.00;99.90;;;;;;4930953;29;20026;-77
2023/01/29 08:58:44;;;;;;;0.00;0.00;;;0.00;99.90;;;;;;4930293;29;20084;-78
2023/01/29 09:01:12;;;;;;;0.00;0.00;;;0.10;99.90;;;;;;4933079;29;20035;-78
2023/01/29 09:03:43;;;;;;;0.00;0.00;;;0.00;99.90;;;;;;4933427;29;20035;-77
2023/01/29 09:06:15;;;;;;;0.00;0.00;;;-0.10;99.90;;;;;;4932753;29;20075;-77
2023/01/29 09:08:40;;;;;;;0.00;0.00;;;0.00;99.90;;;;;;4931897;29;20028;-77
2023/01/29 09:11:10;;;;;;;0.00;0.00;;;0.20;99.90;;;;;;4930462;29;20031;-73
2023/01/29 09:13:36;;;;;;;0.00;0.00;;;0.40;99.90;;;;;;4932633;29;20726;-79
2023/01/29 09:16:16;;;;;;;;;;;0.20;99.90;;;;;;4934455;29;20094;-78
2023/01/29 09:18:52;;;;;;;0.00;0.00;;;0.60;99.90;;;;;;4931897;29;19911;-78
2023/01/29 09:21:17;;;;;;;0.00;0.00;;;0.70;99.90;;;;;;4933068;29;20033;-77
2023/01/29 09:23:43;;;;;;;0.00;0.00;;;0.90;99.90;;;;;;4932892;29;20035;-78
2023/01/29 09:26:11;;;;;;;0.00;0.00;;;1.20;99.90;;;;;;4932374;29;20054;-77
2023/01/29 09:28:44;;;;;;;0.00;0.00;;;1.10;99.90;;;;;;4933107;29;20480;-79
2023/01/29 09:31:29;;;;;;;0.00;0.00;;;1.00;99.90;;;;;;4929488;29;20389;-78
2023/01/29 09:33:57;;;;;;;0.00;0.00;;;1.50;99.90;;;;;;4931937;29;20024;-78
2023/01/29 09:36:24;;;;;;;0.00;0.00;;;1.70;99.90;;;;;;4945628;28;20062;-78
2023/01/29 09:38:55;;;;;;;0.00;0.00;;;1.90;99.90;;;;;;4932026;29;20027;-79
2023/01/29 09:41:46;;;;;;;0.00;0.00;;;2.30;99.90;;;;;;4932716;29;20769;-80
2023/01/29 09:44:37;;;;;;;0.00;0.00;;;2.10;99.90;;;;;;4921709;29;20035;-78
2023/01/29 09:47:06;;;;;;;0.00;0.00;;;2.60;99.90;;;;;;4931622;29;20035;-79
2023/01/29 09:49:40;;;;;;;0.00;0.00;;;3.20;99.90;;;;;;4932270;29;20031;-77
2023/01/29 09:52:24;;;;;;;0.20;0.10;;;3.10;99.90;;;;;;4930507;29;20027;-77
2023/01/29 09:55:11;;;;;;;0.00;0.00;;;2.80;99.90;;;;;;4931090;29;20031;-78
2023/01/29 09:57:45;;;;;;;0.00;0.00;;;3.50;99.90;;;;;;4945732;28;20134;-83
2023/01/29 10:00:24;;;;;;;0.00;0.00;;;3.80;99.90;;;;;;5175094;23;20485;-75
2023/01/29 10:03:07;;;;;;;0.15;0.15;;;4.80;99.50;;;;;;4946061;28;20052;-74
2023/01/29 10:06:03;;;;;;;0.00;0.00;;;5.10;96.80;;;;;;4931106;29;20023;-75
2023/01/29 10:08:55;;;;;;;0.00;0.00;;;4.80;96.40;;;;;;4930596;29;20016;-74
2023/01/29 10:11:43;;;;;;;0.00;0.00;;;6.00;98.60;;;;;;4930979;28;20091;-73
2023/01/29 10:14:46;;;;;;;0.00;0.00;;;7.90;93.60;;;;;;4930618;29;20082;-74
2023/01/29 10:17:40;;;;;;;0.00;0.00;;;8.70;78.30;;;;;;4928351;29;20028;-75
2023/01/29 10:20:09;;;;;;;0.00;0.00;;;7.70;79.60;;;;;;4936975;29;20031;-83
2023/01/29 10:23:03;;;;;;;0.00;0.00;;;7.70;82.60;;;;;;4933057;29;20086;-80
2023/01/29 10:25:35;;;;;;;0.00;0.00;;;7.90;79.60;;;;;;4926729;29;20046;-78
2023/01/29 10:28:01;;;;;;;0.00;0.00;;;7.60;75.50;;;;;;4929720;29;20028;-80
2023/01/29 10:30:39;;;;;;;0.00;0.00;;;6.80;80.00;;;;;;4932189;29;20038;-81
2023/01/29 10:33:14;;;;;;;0.00;0.00;;;5.90;83.90;;;;;;4931415;29;20481;-79
2023/01/29 10:35:51;;;;;;;0.00;0.00;;;5.50;88.30;;;;;;4930471;29;20531;-77
2023/01/29 10:38:44;;;;;;;0.00;0.00;;;6.10;92.40;;;;;;4934199;28;20019;-79
2023/01/29 10:41:29;;;;;;;0.00;0.00;;;7.90;81.20;;;;;;4945668;28;20488;-79
2023/01/29 10:44:04;;;;;;;0.00;0.00;;;7.10;81.10;;;;;;4930499;29;20481;-78
2023/01/29 10:47:03;;;;;;;0.00;0.00;;;6.60;84.20;;;;;;4931457;29;20528;-78
2023/01/29 10:50:01;;;;;;;0.00;0.00;;;5.50;90.20;;;;;;4932899;29;20139;-79
2023/01/29 10:52:51;;;;;;;0.00;0.00;;;5.90;88.70;;;;;;4896042;29;20087;-80
2023/01/29 10:55:46;;;;;;;0.00;0.00;;;5.90;89.70;;;;;;4929830;29;20031;-78
2023/01/29 10:58:24;;;;;;;0.00;0.00;;;5.30;90.90;;;;;;4922470;29;20034;-79
2023/01/29 11:00:50;;;;;;;0.00;0.00;;;4.50;94.30;;;;;;4930190;29;20040;-79
2023/01/29 11:03:30;;;;;;;0.00;0.00;;;4.30;95.90;;;;;;4946349;28;21417;-79
2023/01/29 11:06:35;;;;;;;0.00;0.00;;;4.30;96.70;;;;;;4934558;29;20027;-79
2023/01/29 11:09:17;;;;;;;0.00;0.00;;;3.70;98.20;;;;;;4947191;28;20027;-82
2023/01/29 11:12:12;;;;;;;0.00;0.00;;;3.60;99.90;;;;;;4930666;29;20090;-83
2023/01/29 11:14:57;;;;;;;0.00;0.00;;;3.50;99.90;;;;;;4930647;29;20440;-80
2023/01/29 11:17:24;;;;;;;0.00;0.00;;;3.60;99.90;;;;;;4947588;28;20044;-81
2023/01/29 11:19:54;;;;;;;0.00;0.00;;;3.70;99.90;;;;;;4934895;29;20036;-79
2023/01/29 11:22:28;;;;;;;0.00;0.00;;;3.50;99.90;;;;;;4930509;29;20067;-82
2023/01/29 11:25:20;;;;;;;0.00;0.00;;;3.70;99.90;;;;;;4952979;28;20028;-81
2023/01/29 11:27:56;;;;;;;0.00;0.00;;;3.90;99.90;;;;;;4950249;28;20055;-81
2023/01/29 11:30:34;;;;;;;0.00;0.00;;;4.20;99.90;;;;;;4932100;29;20027;-82
2023/01/29 11:33:18;;;;;;;0.00;0.00;;;4.40;97.90;;;;;;4931684;28;20500;-81
2023/01/29 11:35:44;;;;;;;0.00;0.00;;;4.60;98.00;;;;;;4927776;29;20038;-81
2023/01/29 11:38:27;;;;;;;0.00;0.00;;;4.50;98.30;;;;;;4929394;29;20027;-80
2023/01/29 11:41:05;;;;;;;0.00;0.00;;;4.50;97.00;;;;;;4928973;29;20063;-80
2023/01/29 11:43:31;;;;;;;1.25;0.98;;;4.40;98.40;;;;;;4935736;29;20074;-83
2023/01/29 11:46:16;;;;;;;0.17;0.17;;;4.10;98.00;;;;;;4957058;28;20609;-83
2023/01/29 11:48:53;;;;;;;0.00;0.00;;;4.30;98.40;;;;;;4939933;29;20481;-82
2023/01/29 11:51:27;;;;;;;0.00;0.00;;;4.30;98.70;;;;;;4934648;29;20027;-82
2023/01/29 11:53:56;;;;;;;0.00;0.00;;;3.70;98.20;;;;;;4948089;28;20028;-80
2023/01/29 11:56:38;;;;;;;0.00;0.00;;;3.90;99.90;;;;;;4948352;28;20966;-82
2023/01/29 11:59:29;;;;;;;0.00;0.00;;;3.70;99.80;;;;;;4951220;28;20020;-82
2023/01/29 12:01:55;;;;;;;0.65;0.20;;;3.90;99.90;;;;;;4934681;29;20114;-82
2023/01/29 12:04:24;;;;;;;0.00;0.00;;;4.40;99.90;;;;;;4949950;28;20659;-81
2023/01/29 12:06:52;;;;;;;0.77;0.55;;;4.40;99.90;;;;;;4951871;28;20031;-81
2023/01/29 12:09:26;;;;;;;0.00;0.00;;;4.50;99.80;;;;;;4937405;29;20028;-83
2023/01/29 12:12:16;;;;;;;0.00;0.00;;;4.40;99.90;;;;;;4962598;28;20039;-80
2023/01/29 12:15:03;;;;;;;0.00;0.00;;;4.40;99.90;;;;;;4936871;29;20035;-82
2023/01/29 12:17:42;;;;;;;2.80;0.38;;;4.00;99.90;;;;;;4939288;28;20039;-82
2023/01/29 12:20:23;;;;;;;0.00;0.00;;;3.30;99.90;;;;;;4936515;29;20398;-82
2023/01/29 12:23:15;;;;;;;0.00;0.00;;;3.60;99.90;;;;;;4941966;29;20258;-83
2023/01/29 12:26:00;;;;;;;0.00;0.00;;;3.80;99.90;;;;;;4933951;28;20020;-82
2023/01/29 12:28:43;;;;;;;0.00;0.00;;;3.10;99.90;;;;;;4934337;28;20030;-81
2023/01/29 12:31:45;;;;;;;0.00;0.00;;;3.20;99.90;;;;;;4933114;29;20028;-75
2023/01/29 12:34:16;;;;;;;0.00;0.00;;;3.10;99.90;;;;;;4933504;29;20504;-80
2023/01/29 12:36:54;;;;;;;0.00;0.00;;;2.60;99.90;;;;;;4935510;29;20745;-82
2023/01/29 12:39:27;;;;;;;0.10;0.10;;;2.80;99.90;;;;;;4933935;29;20020;-80
2023/01/29 12:42:12;;;;;;;0.10;0.10;;;2.50;99.90;;;;;;4948524;28;20028;-81
2023/01/29 12:44:46;;;;;;;0.20;0.20;;;2.80;99.90;;;;;;4933198;29;20016;-80
2023/01/29 12:47:30;;;;;;;0.10;0.10;;;2.50;99.90;;;;;;4933627;29;20055;-80
2023/01/29 12:50:07;;;;;;;0.00;0.00;;;2.60;99.90;;;;;;4952174;28;20716;-79
2023/01/29 12:52:45;;;;;;;0.00;0.00;;;3.10;99.90;;;;;;4932110;29;20070;-79
2023/01/29 12:55:20;;;;;;;0.00;0.00;;;3.20;99.90;;;;;;4946844;28;20594;-81
2023/01/29 12:58:08;;;;;;;0.00;0.00;;;3.30;99.90;;;;;;4931890;29;20348;-80
2023/01/29 13:00:44;;;;;;;0.00;0.00;;;3.60;99.90;;;;;;4931295;29;20544;-80
2023/01/29 13:03:16;;;;;;;0.00;0.00;;;3.70;99.90;;;;;;4946313;28;20106;-80
2023/01/29 13:06:09;;;;;;;0.00;0.00;;;3.70;99.90;;;;;;4932507;29;20035;-80
2023/01/29 13:08:45;;;;;;;0.00;0.00;;;3.80;99.90;;;;;;4930571;29;20150;-79
2023/01/29 13:11:21;;;;;;;0.00;0.00;;;3.70;99.90;;;;;;4932093;29;20039;-80
2023/01/29 13:13:53;;;;;;;0.00;0.00;;;3.30;99.90;;;;;;4933237;29;20027;-75
2023/01/29 13:16:26;;;;;;;0.00;0.00;;;3.20;99.90;;;;;;4931903;29;20031;-80
2023/01/29 13:18:59;;;;;;;0.00;0.00;;;3.30;99.90;;;;;;4934504;29;20040;-80
2023/01/29 13:21:40;;;;;;;0.00;0.00;;;3.40;99.90;;;;;;4932412;29;20428;-79
2023/01/29 13:24:16;;;;;;;0.00;0.00;;;3.40;99.90;;;;;;4946597;28;20027;-80
2023/01/29 13:26:50;;;;;;;0.00;0.00;;;3.60;99.90;;;;;;4933988;29;20039;-80
2023/01/29 13:29:24;;;;;;;0.00;0.00;;;3.70;99.90;;;;;;4932147;28;20500;-79
2023/01/29 13:32:01;;;;;;;0.35;0.35;;;3.70;99.90;;;;;;4932132;29;20051;-79
2023/01/29 13:34:46;;;;;;;0.00;0.00;;;3.30;99.90;;;;;;4946962;28;20532;-80
2023/01/29 13:37:18;;;;;;;0.00;0.00;;;3.30;99.90;;;;;;4942294;28;20385;-79
2023/01/29 13:39:51;;;;;;;0.00;0.00;;;3.10;99.90;;;;;;4930142;29;20082;-80
2023/01/29 13:42:19;;;;;;;0.00;0.00;;;3.30;99.90;;;;;;4931874;29;20042;-79
2023/01/29 13:44:51;;;;;;;0.00;0.00;;;3.20;99.90;;;;;;4931231;29;20058;-80
2023/01/29 13:47:27;;;;;;;0.10;0.10;;;2.90;99.90;;;;;;4930618;29;20051;-79
2023/01/29 13:50:18;;;;;;;0.00;0.00;;;3.10;99.90;;;;;;4947746;28;20028;-79
2023/01/29 13:52:57;;;;;;;0.00;0.00;;;3.00;99.90;;;;;;4924436;29;20039;-79
2023/01/29 13:55:30;;;;;;;0.00;0.00;;;3.10;99.90;;;;;;4931198;29;20051;-79
2023/01/29 13:58:06;;;;;;;0.00;0.00;;;3.10;99.90;;;;;;4946029;28;20034;-78
2023/01/29 14:00:32;;;;;;;0.00;0.00;;;3.30;99.90;;;;;;4945681;28;20389;-79